Time;durP1;ratioP1;P1;durP2;ratioP2;P2;SDS_P1;SDS_P2;PMS_P1;PMS_P2;Temp;Humidity;BMP_temperature;BMP_pressure;BME280_temperature;BME280_humidity;BME280_pressure;Samples;Min_cycle;Max_cycle;Signal;HPM_P1;HPM_P2
2022/04/03 01:28:35;;;;;;;4.28;3.33;;;2.00;99.90;;;;;;5080605;23;20091;-84
2022/04/03 01:41:48;;;;;;;6.15;3.65;;;1.90;99.90;;;;;;5806793;23;20044;-84
2022/04/03 03:58:53;;;;;;;10.37;4.20;;;1.40;99.90;;;;;;6053528;23;20238;31
2022/04/03 04:06:58;;;;;;;8.15;3.75;;;1.40;99.90;;;;;;5363983;23;20055;-84
2022/04/03 05:08:34;;;;;;;9.13;5.15;;;1.60;99.90;;;;;;3844565;23;20035;-81
2022/04/03 05:11:03;;;;;;;8.63;5.28;;;3.20;99.90;;;;;;4912975;29;20613;-79
2022/04/03 05:13:35;;;;;;;8.23;4.70;;;2.20;99.90;;;;;;4888349;29;20036;-80
2022/04/03 05:16:05;;;;;;;7.18;3.85;;;2.10;99.90;;;;;;4924405;23;20055;-82
2022/04/03 05:21:08;;;;;;;11.63;4.47;;;1.90;99.90;;;;;;5598335;23;20032;-84
2022/04/03 05:23:43;;;;;;;16.90;7.00;;;2.50;99.90;;;;;;5516862;23;21994;-82
2022/04/03 05:53:40;;;;;;;8.70;4.10;;;2.10;99.90;;;;;;5521237;23;20362;-84
2022/04/03 06:01:30;;;;;;;10.50;8.05;;;2.10;99.90;;;;;;5190396;23;20032;-85
2022/04/03 06:03:59;;;;;;;7.60;5.63;;;2.60;99.90;;;;;;4911373;29;20043;-84
2022/04/03 06:38:58;;;;;;;5.97;4.30;;;2.50;99.90;;;;;;1742748;23;20564;-82
2022/04/03 07:12:38;;;;;;;6.50;3.67;;;3.00;99.90;;;;;;3250859;23;20083;-82
2022/04/03 07:15:13;;;;;;;7.85;3.75;;;4.10;99.90;;;;;;5218522;23;20131;-84
2022/04/03 07:17:40;;;;;;;5.03;4.03;;;3.10;99.90;;;;;;4935728;29;20042;-82
2022/04/03 07:20:07;;;;;;;6.28;4.38;;;3.30;99.90;;;;;;4934979;29;20047;-80
2022/04/03 07:22:33;;;;;;;8.07;4.43;;;3.30;99.90;;;;;;4947898;29;20036;-80
2022/04/03 07:24:58;;;;;;;9.30;5.70;;;3.40;99.90;;;;;;4932104;29;20031;-81
2022/04/03 07:30:06;;;;;;;9.65;6.10;;;3.60;99.90;;;;;;5183348;23;20460;-82
2022/04/03 07:32:32;;;;;;;5.53;4.05;;;3.70;99.90;;;;;;4920007;29;20016;-82
2022/04/03 07:34:58;;;;;;;8.25;4.70;;;3.60;99.90;;;;;;4957761;23;20480;-80
2022/04/03 07:37:25;;;;;;;9.80;4.93;;;4.50;99.90;;;;;;4925105;29;20097;-78
2022/04/03 07:39:51;;;;;;;7.32;3.78;;;4.00;99.90;;;;;;4919424;29;20056;-81
2022/04/03 07:42:17;;;;;;;9.48;4.85;;;4.10;99.90;;;;;;4916057;29;20056;-79
2022/04/03 07:44:44;;;;;;;8.10;3.97;;;5.30;99.90;;;;;;4949265;23;20053;-80
2022/04/03 07:47:11;;;;;;;7.03;3.63;;;4.80;99.90;;;;;;4900236;29;20046;-80
2022/04/03 07:49:37;;;;;;;7.50;4.10;;;5.10;99.90;;;;;;4900723;29;20028;-80
2022/04/03 07:52:03;;;;;;;9.20;4.13;;;4.80;99.90;;;;;;4901158;29;20092;-80
2022/04/03 07:54:29;;;;;;;8.30;3.70;;;4.50;99.90;;;;;;4910255;29;20020;-80
2022/04/03 07:56:55;;;;;;;8.73;5.78;;;5.40;99.90;;;;;;4905781;29;20115;-81
2022/04/03 07:59:20;;;;;;;8.73;5.47;;;5.30;99.90;;;;;;4888592;29;20448;-81
2022/04/03 08:01:46;;;;;;;4.78;3.20;;;4.90;99.90;;;;;;4907957;29;20029;-82
2022/04/03 08:04:13;;;;;;;6.22;3.25;;;4.80;99.80;;;;;;4905527;29;20127;-80
2022/04/03 08:06:43;;;;;;;8.70;3.55;;;4.80;99.20;;;;;;4904780;29;20020;-82
2022/04/03 08:11:42;;;;;;;5.75;3.80;;;4.90;98.20;;;;;;4937798;23;20077;-82
2022/04/03 08:14:08;;;;;;;5.57;3.85;;;4.90;98.20;;;;;;4910696;29;20028;-81
2022/04/03 08:16:34;;;;;;;5.07;4.57;;;5.30;97.70;;;;;;4906993;29;20048;-81
2022/04/03 08:19:14;;;;;;;4.72;3.38;;;5.00;97.60;;;;;;4915787;29;20040;-85
2022/04/03 08:21:41;;;;;;;5.65;3.50;;;4.80;96.80;;;;;;4924944;23;20040;-86
2022/04/03 08:24:27;;;;;;;5.85;3.55;;;5.20;95.80;;;;;;5058290;23;20196;-80
2022/04/03 08:26:52;;;;;;;5.93;3.28;;;6.00;95.20;;;;;;4939585;29;20081;-81
2022/04/03 08:29:18;;;;;;;4.63;3.83;;;5.30;95.20;;;;;;4945977;29;20059;-80
2022/04/03 08:31:43;;;;;;;5.45;3.88;;;5.40;96.10;;;;;;4926544;29;20063;-80
2022/04/03 08:34:41;;;;;;;6.95;3.78;;;5.40;96.50;;;;;;4954536;29;20015;-81
2022/04/03 08:37:06;;;;;;;;;;;5.40;96.10;;;;;;5004729;23;20052;-81
2022/04/03 08:39:32;;;;;;;7.55;3.38;;;5.40;97.30;;;;;;4925932;29;19961;-77
2022/04/03 08:44:35;;;;;;;7.65;3.65;;;5.30;96.30;;;;;;5985264;23;20025;-81
2022/04/03 08:47:05;;;;;;;3.88;3.08;;;6.40;95.10;;;;;;4933786;23;20028;-85
2022/04/03 08:49:33;;;;;;;5.43;4.47;;;5.50;94.80;;;;;;4899965;29;20044;-78
2022/04/03 08:52:01;;;;;;;7.82;3.50;;;5.50;94.20;;;;;;4921066;29;20031;-79
2022/04/03 08:57:06;;;;;;;10.45;4.30;;;5.80;92.80;;;;;;5213009;23;20064;-84
2022/04/03 08:59:37;;;;;;;8.55;4.90;;;5.80;92.00;;;;;;5550340;23;20149;-80
2022/04/03 09:02:31;;;;;;;8.25;4.82;;;5.90;92.00;;;;;;4922036;29;20020;-83
2022/04/03 09:07:25;;;;;;;6.55;3.38;;;6.00;91.10;;;;;;5118408;23;20060;-81
2022/04/03 09:10:14;;;;;;;8.98;4.20;;;6.40;89.90;;;;;;4928780;29;20032;-81
2022/04/03 09:13:30;;;;;;;7.78;4.45;;;6.00;87.70;;;;;;4913638;29;20012;-85
2022/04/03 09:18:54;;;;;;;5.18;3.58;;;6.40;90.60;;;;;;5543836;23;20060;-81
2022/04/03 09:21:26;;;;;;;6.22;3.58;;;6.50;90.80;;;;;;4928512;29;20036;-80
2022/04/03 09:24:12;;;;;;;7.15;4.38;;;6.60;88.20;;;;;;4913769;29;20048;-81
2022/04/03 09:26:42;;;;;;;7.45;3.78;;;6.60;85.20;;;;;;4917092;29;20043;-82
2022/04/03 09:29:15;;;;;;;5.65;4.63;;;6.70;85.40;;;;;;4921261;29;20055;-81
2022/04/03 09:31:44;;;;;;;6.10;3.38;;;6.70;86.50;;;;;;4915189;29;20039;-81
2022/04/03 09:34:18;;;;;;;9.70;4.35;;;7.10;87.20;;;;;;4912779;29;20072;-82
2022/04/03 09:37:00;;;;;;;4.40;3.63;;;7.10;88.00;;;;;;4909215;29;20032;-80
2022/04/03 09:42:18;;;;;;;7.13;3.35;;;7.80;99.90;;;;;;4935873;28;20052;-86
2022/04/03 10:03:22;;;;;;;6.43;3.72;;;7.00;79.20;;;;;;4732059;27;20059;-82
2022/04/03 10:05:48;;;;;;;7.35;3.38;;;7.20;78.20;;;;;;5246325;23;20044;-82
2022/04/03 11:04:08;;;;;;;5.68;3.75;;;6.50;76.10;;;;;;5190603;23;20056;-85
2022/04/03 11:07:04;;;;;;;8.00;3.30;;;6.50;76.90;;;;;;4923188;29;20068;-83
2022/04/03 11:12:11;;;;;;;7.88;3.70;;;6.40;77.80;;;;;;5013088;23;20040;-83
2022/04/03 11:15:23;;;;;;;6.43;4.50;;;7.30;79.80;;;;;;4938507;29;20040;-84
2022/04/03 11:23:16;;;;;;;5.53;4.10;;;6.60;76.70;;;;;;5110660;23;20044;-84
2022/04/03 11:56:35;;;;;;;4.93;2.90;;;7.50;70.90;;;;;;4920395;29;20028;-83
2022/04/03 12:01:41;;;;;;;4.22;2.92;;;8.10;71.90;;;;;;5044325;23;20062;-84
2022/04/03 12:04:36;;;;;;;4.65;2.85;;;8.50;73.10;;;;;;4924883;29;20021;-86
2022/04/03 12:36:47;;;;;;;5.70;4.32;;;8.30;62.00;;;;;;5375434;23;20040;-85
2022/04/03 12:46:52;;;;;;;5.05;2.75;;;7.90;59.30;;;;;;5167195;23;20036;-88
2022/04/03 12:50:10;;;;;;;4.63;2.75;;;7.90;62.50;;;;;;4928491;29;20056;-84
2022/04/03 13:00:43;;;;;;;2.72;2.30;;;7.90;61.30;;;;;;4944786;29;20110;-85
2022/04/03 13:47:12;;;;;;;3.13;2.80;;;8.40;58.20;;;;;;5251969;23;20064;-84
2022/04/03 14:25:54;;;;;;;3.40;3.10;;;7.60;69.10;;;;;;5812283;23;20051;-76
2022/04/03 14:28:20;;;;;;;4.20;3.05;;;7.60;69.00;;;;;;4903996;29;20123;-77
2022/04/03 14:30:47;;;;;;;4.32;3.47;;;7.50;68.90;;;;;;4920728;29;20032;-76
2022/04/03 14:33:13;;;;;;;7.47;5.20;;;7.50;70.20;;;;;;4920744;29;20063;-76
2022/04/03 14:35:40;;;;;;;4.88;3.47;;;7.50;75.70;;;;;;4920497;29;20028;-77
2022/04/03 14:38:06;;;;;;;4.97;3.72;;;7.50;69.70;;;;;;4920539;29;20380;-78
2022/04/03 14:40:31;;;;;;;12.73;9.70;;;7.50;69.50;;;;;;4920344;29;20087;-76
2022/04/03 14:42:59;;;;;;;4.72;4.28;;;7.60;70.10;;;;;;4920679;29;20024;-76
2022/04/03 14:45:27;;;;;;;3.05;2.75;;;7.50;68.70;;;;;;4905810;29;20040;-79
2022/04/03 14:47:53;;;;;;;4.78;3.53;;;7.50;69.50;;;;;;4906368;29;20379;-77
2022/04/03 14:50:19;;;;;;;5.57;3.55;;;7.40;70.50;;;;;;4911640;29;20032;-78
2022/04/03 14:52:47;;;;;;;5.40;3.92;;;7.40;70.90;;;;;;4926550;29;20025;-76
2022/04/03 14:55:12;;;;;;;4.20;3.30;;;7.40;70.60;;;;;;4925032;29;20032;-76
2022/04/03 14:57:39;;;;;;;4.47;3.28;;;7.50;70.60;;;;;;4906579;29;20088;-77
2022/04/03 15:00:08;;;;;;;5.80;4.20;;;7.60;71.60;;;;;;4924254;29;20059;-76
2022/04/03 15:02:35;;;;;;;4.45;3.47;;;7.60;71.60;;;;;;4907056;29;20028;-77
2022/04/03 15:05:02;;;;;;;5.03;3.63;;;7.70;71.60;;;;;;4922668;29;20461;-77
2022/04/03 15:07:30;;;;;;;5.18;4.10;;;7.70;71.10;;;;;;4922964;29;20021;-76
2022/04/03 15:09:55;;;;;;;4.45;4.03;;;7.50;70.60;;;;;;4921768;29;20032;-76
2022/04/03 15:12:22;;;;;;;4.95;4.38;;;7.30;71.00;;;;;;4904812;29;20035;-76
2022/04/03 15:14:48;;;;;;;4.47;3.40;;;7.20;71.90;;;;;;4920848;29;20028;-77
2022/04/03 15:17:14;;;;;;;7.32;3.80;;;7.10;73.30;;;;;;4922362;29;20020;-77
2022/04/03 15:19:42;;;;;;;6.78;3.45;;;6.90;73.90;;;;;;4905015;29;20035;-76
2022/04/03 15:22:08;;;;;;;4.53;3.83;;;6.80;73.60;;;;;;4921803;29;20054;-76
2022/04/03 15:24:34;;;;;;;6.20;4.45;;;6.80;74.50;;;;;;4904071;29;20468;-77
2022/04/03 15:26:59;;;;;;;6.55;4.25;;;6.80;74.20;;;;;;4920783;29;20524;-76
2022/04/03 15:29:25;;;;;;;4.75;4.00;;;6.80;74.20;;;;;;4904168;29;20028;-77
2022/04/03 15:31:53;;;;;;;6.55;4.13;;;6.80;74.30;;;;;;4921138;29;20365;-77
2022/04/03 15:34:22;;;;;;;12.77;7.00;;;6.70;73.90;;;;;;4921318;29;20022;-77
2022/04/03 15:36:51;;;;;;;8.98;5.63;;;6.60;74.90;;;;;;4902589;29;20028;-76
2022/04/03 15:39:17;;;;;;;14.88;10.48;;;6.60;75.00;;;;;;4919794;29;20032;-75
2022/04/03 15:41:44;;;;;;;67.57;45.20;;;6.60;75.10;;;;;;4917631;29;20028;-75
2022/04/03 15:44:10;;;;;;;16.95;11.40;;;6.60;75.10;;;;;;4917098;29;20112;-75
2022/04/03 15:46:36;;;;;;;14.07;10.88;;;6.60;74.70;;;;;;4917612;29;20352;-76
2022/04/03 15:49:04;;;;;;;8.40;6.32;;;6.60;74.40;;;;;;4917904;29;20471;-75
2022/04/03 15:51:30;;;;;;;6.65;5.55;;;6.50;74.30;;;;;;4917951;29;20040;-75
2022/04/03 15:53:59;;;;;;;7.90;5.57;;;6.60;74.30;;;;;;4918812;29;20016;-77
2022/04/03 15:56:26;;;;;;;6.10;4.30;;;6.50;74.70;;;;;;4903701;29;20039;-77
2022/04/03 15:58:52;;;;;;;6.15;4.57;;;6.40;75.20;;;;;;4902705;29;20024;-77
2022/04/03 16:01:22;;;;;;;6.97;5.75;;;6.30;75.40;;;;;;4918528;29;20684;-76
2022/04/03 16:03:49;;;;;;;4.85;4.35;;;6.30;76.70;;;;;;4900984;29;20039;-76
2022/04/03 16:06:15;;;;;;;9.18;5.68;;;6.30;76.60;;;;;;4899743;29;20032;-75
2022/04/03 16:08:42;;;;;;;4.65;3.58;;;6.20;76.90;;;;;;4916747;29;20387;-75
2022/04/03 16:11:07;;;;;;;4.35;3.92;;;6.20;76.60;;;;;;4903435;29;20039;-75
2022/04/03 16:13:33;;;;;;;6.47;4.60;;;6.20;77.00;;;;;;4903485;29;20036;-75
2022/04/03 16:15:59;;;;;;;8.35;4.32;;;6.20;77.40;;;;;;4921449;29;20371;-75
2022/04/03 16:18:26;;;;;;;5.28;3.80;;;6.20;77.20;;;;;;4920231;29;20024;-75
2022/04/03 16:20:53;;;;;;;4.72;4.07;;;6.20;77.70;;;;;;4919678;29;20028;-74
2022/04/03 16:23:22;;;;;;;5.35;4.30;;;6.10;77.80;;;;;;4903263;29;20814;-75
2022/04/03 16:25:48;;;;;;;6.30;4.25;;;6.00;77.50;;;;;;4919759;29;20387;-75
2022/04/03 16:28:21;;;;;;;7.10;4.53;;;6.00;78.50;;;;;;4921838;29;20032;-75
2022/04/03 16:30:48;;;;;;;6.40;4.22;;;6.00;78.00;;;;;;4919412;29;20509;-75
2022/04/03 16:33:14;;;;;;;6.78;4.15;;;5.90;78.00;;;;;;4902621;29;20461;-75
2022/04/03 16:35:40;;;;;;;5.72;4.00;;;5.80;77.90;;;;;;4919533;29;20035;-76
2022/04/03 16:38:09;;;;;;;7.03;4.68;;;5.70;78.70;;;;;;4902802;29;20028;-77
2022/04/03 16:40:36;;;;;;;6.47;5.30;;;5.70;78.70;;;;;;4903555;29;20436;-75
2022/04/03 16:43:02;;;;;;;7.57;5.53;;;5.60;78.80;;;;;;4919244;29;20024;-75
2022/04/03 16:45:28;;;;;;;10.52;7.82;;;5.70;79.10;;;;;;4919165;29;20060;-75
2022/04/03 16:47:59;;;;;;;8.80;7.90;;;5.60;79.60;;;;;;4919050;29;20055;-75
2022/04/03 16:50:25;;;;;;;8.10;7.28;;;5.60;79.70;;;;;;4919097;29;20115;-75
2022/04/03 16:52:51;;;;;;;6.07;4.90;;;5.60;79.80;;;;;;4919218;29;20040;-75
2022/04/03 16:55:17;;;;;;;7.35;4.97;;;5.50;79.70;;;;;;4919198;29;20415;-75
2022/04/03 16:57:43;;;;;;;7.75;5.80;;;5.50;80.40;;;;;;4901880;29;20535;-75
2022/04/03 17:00:12;;;;;;;9.50;5.78;;;5.50;81.80;;;;;;4886161;29;20091;-76
2022/04/03 17:02:38;;;;;;;10.15;5.25;;;5.50;81.30;;;;;;4919068;29;20024;-76
2022/04/03 17:05:05;;;;;;;6.93;5.05;;;5.40;81.70;;;;;;4901872;29;20028;-76
2022/04/03 17:07:34;;;;;;;7.07;5.45;;;5.40;82.20;;;;;;4918965;29;20028;-75
2022/04/03 17:10:00;;;;;;;5.68;3.85;;;5.40;83.20;;;;;;4918659;29;20028;-75
2022/04/03 17:12:26;;;;;;;6.70;5.13;;;5.30;82.20;;;;;;4901904;29;20111;-75
2022/04/03 17:14:52;;;;;;;5.47;4.57;;;5.20;82.10;;;;;;4918969;29;20115;-76
2022/04/03 17:17:17;;;;;;;7.07;4.85;;;5.20;82.90;;;;;;4918712;29;20472;-75
2022/04/03 17:19:43;;;;;;;5.60;4.60;;;5.10;83.90;;;;;;4918736;29;20147;-75
2022/04/03 17:22:12;;;;;;;6.63;4.88;;;5.00;83.30;;;;;;4917761;29;20017;-76
2022/04/03 17:24:40;;;;;;;14.05;7.57;;;4.90;82.90;;;;;;4901997;29;20084;-76
2022/04/03 17:27:05;;;;;;;7.47;5.90;;;4.80;83.80;;;;;;4918530;29;20075;-75
2022/04/03 17:29:34;;;;;;;7.25;4.75;;;4.80;84.40;;;;;;4901467;29;20459;-76
2022/04/03 17:32:00;;;;;;;10.52;6.70;;;4.80;85.00;;;;;;4918713;29;20378;-75
2022/04/03 17:34:25;;;;;;;6.82;5.20;;;4.70;85.50;;;;;;4918275;29;20035;-76
2022/04/03 17:36:52;;;;;;;8.80;4.95;;;4.70;85.60;;;;;;4918212;29;20032;-75
2022/04/03 17:39:18;;;;;;;7.60;4.88;;;4.60;86.60;;;;;;4918632;29;20024;-76
2022/04/03 17:41:46;;;;;;;10.57;5.63;;;4.60;88.20;;;;;;4918654;29;20111;-75
2022/04/03 17:44:12;;;;;;;5.80;4.07;;;4.50;88.00;;;;;;4918699;29;20020;-75
2022/04/03 17:46:38;;;;;;;6.88;4.25;;;4.50;88.20;;;;;;4918243;29;20543;-76
2022/04/03 17:49:04;;;;;;;7.22;4.53;;;4.50;89.20;;;;;;4918138;29;20052;-75
2022/04/03 17:51:32;;;;;;;8.93;4.72;;;4.50;89.50;;;;;;4900730;29;20068;-75
2022/04/03 17:53:58;;;;;;;7.05;4.70;;;4.50;90.20;;;;;;4901004;29;20036;-75
2022/04/03 17:56:24;;;;;;;7.70;4.78;;;4.40;90.30;;;;;;4918788;29;20459;-75
2022/04/03 17:58:50;;;;;;;99.10;44.95;;;4.40;90.30;;;;;;4917861;29;20028;-75
2022/04/03 18:01:16;;;;;;;24.40;13.07;;;4.50;90.10;;;;;;4917950;29;20034;-75
2022/04/03 18:03:41;;;;;;;8.45;5.32;;;4.50;90.00;;;;;;4900719;29;20021;-76
2022/04/03 18:06:07;;;;;;;9.70;6.05;;;4.50;89.80;;;;;;4917782;29;20032;-75
2022/04/03 18:08:33;;;;;;;9.68;6.63;;;4.50;90.00;;;;;;4900837;29;20383;-75
2022/04/03 18:11:06;;;;;;;5.68;5.18;;;4.40;89.70;;;;;;4917890;29;20102;-75
2022/04/03 18:13:37;;;;;;;7.35;5.40;;;4.50;89.80;;;;;;4918314;29;20055;-76
2022/04/03 18:16:07;;;;;;;6.35;5.38;;;4.40;89.60;;;;;;4923561;29;20024;-76
2022/04/03 18:18:34;;;;;;;8.43;7.53;;;4.40;89.10;;;;;;4926004;29;20056;-75
2022/04/03 18:21:00;;;;;;;8.05;6.25;;;4.40;89.80;;;;;;4921952;29;20032;-75
2022/04/03 18:23:27;;;;;;;10.25;5.47;;;4.40;89.50;;;;;;4920893;29;20020;-76
2022/04/03 18:25:53;;;;;;;6.55;5.53;;;4.30;89.40;;;;;;4903833;29;20551;-75
2022/04/03 18:28:24;;;;;;;8.73;6.20;;;4.30;89.10;;;;;;4921537;29;20028;-76
2022/04/03 18:30:51;;;;;;;9.10;6.18;;;4.30;88.80;;;;;;4904093;29;20036;-76
2022/04/03 18:33:18;;;;;;;11.25;6.63;;;4.20;89.20;;;;;;4919987;29;20016;-75
2022/04/03 18:35:44;;;;;;;7.03;5.72;;;4.20;88.70;;;;;;4919329;29;20173;-75
2022/04/03 18:38:10;;;;;;;7.85;6.00;;;4.20;88.70;;;;;;4918323;29;20700;-75
2022/04/03 18:40:36;;;;;;;7.70;5.65;;;4.20;89.00;;;;;;4918202;29;20398;-75
2022/04/03 18:43:02;;;;;;;6.15;5.30;;;4.10;90.20;;;;;;4918005;29;20104;-75
2022/04/03 18:45:28;;;;;;;7.50;5.00;;;4.10;89.90;;;;;;4918315;29;20080;-76
2022/04/03 18:47:54;;;;;;;7.18;5.53;;;4.00;88.90;;;;;;4918768;29;20020;-75
2022/04/03 18:50:23;;;;;;;14.43;6.32;;;4.00;89.30;;;;;;4918600;29;20183;-75
2022/04/03 18:52:49;;;;;;;9.23;8.02;;;4.00;88.80;;;;;;4918435;29;20452;-76
2022/04/03 18:55:14;;;;;;;9.40;6.68;;;3.90;88.60;;;;;;4905468;29;20069;-75
2022/04/03 18:57:40;;;;;;;6.28;5.20;;;3.90;90.00;;;;;;4925517;29;20055;-75
2022/04/03 19:00:06;;;;;;;7.18;5.05;;;3.90;90.10;;;;;;4908794;29;20079;-76
2022/04/03 19:02:33;;;;;;;12.15;7.40;;;3.80;89.90;;;;;;4922304;29;20054;-75
2022/04/03 19:04:58;;;;;;;11.82;6.82;;;3.80;89.30;;;;;;4918167;29;20032;-75
2022/04/03 19:07:25;;;;;;;12.00;7.70;;;3.70;88.10;;;;;;4918247;29;20224;-75
2022/04/03 19:09:50;;;;;;;13.70;7.25;;;3.60;88.90;;;;;;4918884;29;20465;-75
2022/04/03 19:12:16;;;;;;;6.93;5.32;;;3.50;89.10;;;;;;4918805;29;20084;-75
2022/04/03 19:14:41;;;;;;;17.85;9.85;;;3.50;89.20;;;;;;4918838;29;20554;-76
2022/04/03 19:17:07;;;;;;;22.83;13.15;;;3.40;90.00;;;;;;4918549;29;20096;-76
2022/04/03 19:19:34;;;;;;;28.58;15.60;;;3.30;89.90;;;;;;4918441;29;20116;-75
2022/04/03 19:21:59;;;;;;;15.07;8.95;;;3.30;90.20;;;;;;4918275;29;20127;-75
2022/04/03 19:24:28;;;;;;;21.05;13.38;;;3.30;90.80;;;;;;4918315;29;20416;-77
2022/04/03 19:26:55;;;;;;;11.15;8.32;;;3.20;91.30;;;;;;4901637;29;20052;-76
2022/04/03 19:29:21;;;;;;;9.75;6.72;;;3.20;91.30;;;;;;4918165;29;20490;-75
2022/04/03 19:31:47;;;;;;;17.13;10.20;;;3.10;91.20;;;;;;4901807;29;20111;-75
2022/04/03 19:34:12;;;;;;;11.00;6.72;;;3.00;91.10;;;;;;4917913;29;20107;-76
2022/04/03 19:36:38;;;;;;;37.35;20.15;;;3.00;91.00;;;;;;4917989;29;20032;-75
2022/04/03 19:39:05;;;;;;;45.30;24.73;;;2.90;90.80;;;;;;4917187;29;20103;-75
2022/04/03 19:41:31;;;;;;;15.73;10.20;;;2.90;91.20;;;;;;4917343;29;20031;-76
2022/04/03 19:43:57;;;;;;;14.68;9.30;;;2.90;91.70;;;;;;4917529;29;20055;-76
2022/04/03 19:46:24;;;;;;;13.05;7.05;;;2.90;92.10;;;;;;4917498;29;20467;-76
2022/04/03 19:48:50;;;;;;;11.15;6.15;;;2.80;92.60;;;;;;4917418;29;20036;-75
2022/04/03 19:51:16;;;;;;;7.78;6.47;;;2.80;93.00;;;;;;4917296;29;20036;-75
2022/04/03 19:53:42;;;;;;;14.65;6.90;;;2.80;93.20;;;;;;4917493;29;20412;-76
2022/04/03 19:56:08;;;;;;;8.50;6.03;;;2.80;93.50;;;;;;4917310;29;20095;-75
2022/04/03 19:58:34;;;;;;;9.65;6.05;;;2.80;93.60;;;;;;4917300;29;20531;-77
2022/04/03 20:01:01;;;;;;;23.35;10.10;;;2.80;94.20;;;;;;4916632;29;20111;-75
2022/04/03 20:03:27;;;;;;;40.65;18.27;;;2.80;95.00;;;;;;4916090;29;20056;-75
2022/04/03 20:05:52;;;;;;;54.00;24.65;;;2.70;95.40;;;;;;4899334;29;20024;-76
2022/04/03 20:08:19;;;;;;;54.63;25.20;;;2.70;96.10;;;;;;4916084;29;20032;-76
2022/04/03 20:10:45;;;;;;;73.43;33.10;;;2.70;96.60;;;;;;4915978;29;20079;-75
2022/04/03 20:13:11;;;;;;;71.13;31.63;;;2.60;97.20;;;;;;4915819;29;20060;-75
2022/04/03 20:15:36;;;;;;;44.42;24.00;;;2.60;97.50;;;;;;4915837;29;20064;-75
2022/04/03 20:18:03;;;;;;;28.95;15.02;;;2.60;97.70;;;;;;4915761;29;20028;-75
2022/04/03 20:20:29;;;;;;;17.48;9.90;;;2.60;98.00;;;;;;4915917;29;20040;-76
2022/04/03 20:22:57;;;;;;;15.07;8.93;;;2.50;98.20;;;;;;4915746;29;20032;-75
2022/04/03 20:25:23;;;;;;;13.45;7.43;;;2.50;98.40;;;;;;4915467;29;20024;-75
2022/04/03 20:27:48;;;;;;;8.98;6.07;;;2.50;98.80;;;;;;4915649;29;20091;-76
2022/04/03 20:30:14;;;;;;;7.28;6.00;;;2.40;99.00;;;;;;4915499;29;20036;-76
2022/04/03 20:32:40;;;;;;;6.03;4.88;;;2.40;99.10;;;;;;4915851;29;20480;-75
2022/04/03 20:35:07;;;;;;;6.32;4.63;;;2.50;99.20;;;;;;4915756;29;20060;-76
2022/04/03 20:37:33;;;;;;;6.57;5.10;;;2.50;99.60;;;;;;4915728;29;20016;-75
2022/04/03 20:39:59;;;;;;;6.20;4.45;;;2.50;99.80;;;;;;4915617;29;20489;-76
2022/04/03 20:42:24;;;;;;;10.02;7.45;;;2.50;99.90;;;;;;4915693;29;20155;-76
2022/04/03 20:44:50;;;;;;;8.02;4.45;;;2.50;99.90;;;;;;4915685;29;20079;-76
2022/04/03 20:47:16;;;;;;;5.18;4.28;;;2.40;99.90;;;;;;4915724;29;20127;-76
2022/04/03 20:49:43;;;;;;;5.72;4.90;;;2.50;99.90;;;;;;4915763;29;20036;-75
2022/04/03 20:52:10;;;;;;;8.00;4.78;;;2.50;99.90;;;;;;4898422;29;20028;-76
2022/04/03 20:54:36;;;;;;;5.15;4.15;;;2.50;99.90;;;;;;4898611;29;20044;-76
2022/04/03 20:57:02;;;;;;;6.57;4.78;;;2.50;99.90;;;;;;4916995;29;20511;-76
2022/04/03 20:59:28;;;;;;;5.82;4.55;;;2.50;99.90;;;;;;4919033;29;20145;-75
2022/04/03 21:01:54;;;;;;;7.97;4.68;;;2.50;99.90;;;;;;4918976;29;20017;-76
2022/04/03 21:04:20;;;;;;;5.80;4.57;;;2.50;99.90;;;;;;4918968;29;20044;-76
2022/04/03 21:06:47;;;;;;;9.95;5.20;;;2.50;99.90;;;;;;4918860;29;20131;-75
2022/04/03 21:09:12;;;;;;;5.72;4.70;;;2.50;99.90;;;;;;4919089;29;20582;-75
2022/04/03 21:11:38;;;;;;;6.35;4.47;;;2.50;99.90;;;;;;4918949;29;20040;-76
2022/04/03 21:14:05;;;;;;;9.98;5.13;;;2.50;99.90;;;;;;4918725;29;20056;-76
2022/04/03 21:16:30;;;;;;;10.85;6.60;;;2.50;99.90;;;;;;4901650;29;20534;-76
2022/04/03 21:18:56;;;;;;;10.55;6.30;;;2.50;99.90;;;;;;4918548;29;20116;-76
2022/04/03 21:21:22;;;;;;;7.45;5.53;;;2.50;99.80;;;;;;4918707;29;20032;-75
2022/04/03 21:23:51;;;;;;;6.78;5.30;;;2.60;99.30;;;;;;4918632;29;20084;-75
2022/04/03 21:26:18;;;;;;;9.93;5.50;;;2.60;99.20;;;;;;4918561;29;20076;-75
2022/04/03 21:28:44;;;;;;;8.60;5.40;;;2.60;99.30;;;;;;4901840;29;20092;-75
2022/04/03 21:31:10;;;;;;;6.00;5.03;;;2.60;99.10;;;;;;4918570;29;20044;-75
2022/04/03 21:33:36;;;;;;;8.65;6.00;;;2.70;99.00;;;;;;4918688;29;20032;-75
2022/04/03 21:36:03;;;;;;;7.22;5.53;;;2.70;98.80;;;;;;4918354;29;20547;-76
2022/04/03 21:38:29;;;;;;;7.88;5.88;;;2.70;98.30;;;;;;4901901;29;20044;-76
2022/04/03 21:40:55;;;;;;;7.18;5.07;;;2.70;98.20;;;;;;4923537;29;20035;-76
2022/04/03 21:43:20;;;;;;;7.00;5.60;;;2.70;98.20;;;;;;4927109;29;20087;-76
2022/04/03 21:45:46;;;;;;;7.45;5.05;;;2.70;98.30;;;;;;4922821;29;20024;-77
2022/04/03 21:48:12;;;;;;;6.85;4.97;;;2.70;98.50;;;;;;4922477;29;20085;-75
2022/04/03 21:50:37;;;;;;;10.40;5.35;;;2.70;98.40;;;;;;4921666;29;20155;-76
2022/04/03 21:53:03;;;;;;;7.60;5.40;;;2.70;97.90;;;;;;4905483;29;20031;-76
2022/04/03 21:55:29;;;;;;;7.75;6.15;;;2.70;97.30;;;;;;4920903;29;20036;-76
2022/04/03 21:57:56;;;;;;;8.95;6.38;;;2.70;97.30;;;;;;4921301;29;20017;-75
2022/04/03 22:00:36;;;;;;;9.55;6.35;;;2.70;97.50;;;;;;4904322;29;20348;-76
2022/04/03 22:03:02;;;;;;;8.82;5.53;;;2.60;98.00;;;;;;4920441;29;20110;-76
2022/04/03 22:05:30;;;;;;;6.95;4.88;;;2.60;98.30;;;;;;4920789;29;20050;-76
2022/04/03 22:07:56;;;;;;;10.57;5.38;;;2.60;98.80;;;;;;4919098;29;20028;-75
2022/04/03 22:10:22;;;;;;;6.00;4.95;;;2.70;99.30;;;;;;4918692;29;20036;-76
2022/04/03 22:12:48;;;;;;;10.05;5.35;;;2.70;99.80;;;;;;4918998;29;20016;-76
2022/04/03 22:15:14;;;;;;;7.75;4.85;;;2.60;99.90;;;;;;4918475;29;20411;-75
2022/04/03 22:17:41;;;;;;;6.07;5.47;;;2.60;99.70;;;;;;4918465;29;20132;-75
2022/04/03 22:20:08;;;;;;;7.38;5.38;;;2.60;99.40;;;;;;4918092;29;20419;-76
2022/04/03 22:22:34;;;;;;;7.88;6.03;;;2.50;99.80;;;;;;4918304;29;20028;-76
2022/04/03 22:24:59;;;;;;;6.30;4.85;;;2.50;99.90;;;;;;4917932;29;20028;-75
2022/04/03 22:27:27;;;;;;;7.40;5.68;;;2.40;99.90;;;;;;4917746;29;20051;-75
2022/04/03 22:29:54;;;;;;;7.15;5.50;;;2.40;99.90;;;;;;4917846;29;20534;-75
2022/04/03 22:32:20;;;;;;;8.32;5.75;;;2.50;99.90;;;;;;4918346;29;20542;-75
2022/04/03 22:34:46;;;;;;;10.75;6.18;;;2.40;99.90;;;;;;4918899;29;20095;-75
2022/04/03 22:37:12;;;;;;;7.97;5.55;;;2.30;99.90;;;;;;4901384;29;20043;-76
2022/04/03 22:39:38;;;;;;;6.45;5.50;;;2.20;99.90;;;;;;4918819;29;20016;-75
2022/04/03 22:42:05;;;;;;;7.22;4.97;;;2.20;99.90;;;;;;4901714;29;20038;-76
2022/04/03 22:44:30;;;;;;;7.43;5.68;;;2.20;99.90;;;;;;4918778;29;20021;-77
2022/04/03 22:46:56;;;;;;;6.32;5.43;;;2.10;99.90;;;;;;4918557;29;20028;-75
2022/04/03 22:49:22;;;;;;;7.40;5.60;;;2.10;99.90;;;;;;4919226;29;20107;-75
2022/04/03 22:51:48;;;;;;;8.82;5.75;;;2.10;99.90;;;;;;4918422;29;20132;-76
2022/04/03 22:54:13;;;;;;;7.65;5.72;;;2.20;99.90;;;;;;4918445;29;20032;-76
2022/04/03 22:56:39;;;;;;;10.05;5.65;;;2.20;99.90;;;;;;4901434;29;20032;-75
2022/04/03 22:59:05;;;;;;;6.93;5.35;;;2.20;99.90;;;;;;4901785;29;20031;-76
2022/04/03 23:01:35;;;;;;;9.95;5.70;;;2.20;99.90;;;;;;4918704;29;20124;-77
2022/04/03 23:04:01;;;;;;;5.90;5.20;;;2.20;99.90;;;;;;4918711;29;20079;-75
2022/04/03 23:06:28;;;;;;;9.55;6.10;;;2.20;99.90;;;;;;4918408;29;20032;-75
2022/04/03 23:08:53;;;;;;;8.18;5.82;;;2.20;99.90;;;;;;4919070;29;20024;-75
2022/04/03 23:11:19;;;;;;;6.95;5.25;;;2.20;99.90;;;;;;4918529;29;20402;-76
2022/04/03 23:13:45;;;;;;;6.80;6.10;;;2.20;99.90;;;;;;4918090;29;20103;-75
2022/04/03 23:16:11;;;;;;;12.10;5.40;;;2.20;99.90;;;;;;4917184;29;20025;-76
2022/04/03 23:18:36;;;;;;;10.73;5.85;;;2.20;99.90;;;;;;4916079;29;20448;-75
2022/04/03 23:21:02;;;;;;;6.85;4.75;;;2.30;99.90;;;;;;4916413;29;20028;-76
2022/04/03 23:23:28;;;;;;;8.10;5.75;;;2.20;99.90;;;;;;4916554;29;20480;-75
2022/04/03 23:25:53;;;;;;;9.45;5.75;;;2.20;99.90;;;;;;4916261;29;20365;-76
2022/04/03 23:28:19;;;;;;;7.18;5.40;;;2.20;99.90;;;;;;4916538;29;20035;-75
2022/04/03 23:30:46;;;;;;;10.35;5.78;;;2.10;99.90;;;;;;4916414;29;20033;-75
2022/04/03 23:33:11;;;;;;;8.35;5.65;;;2.20;99.90;;;;;;4916344;29;20353;-75
2022/04/03 23:35:37;;;;;;;7.35;5.85;;;2.20;99.90;;;;;;4916413;29;20052;-76
2022/04/03 23:38:02;;;;;;;8.73;5.47;;;2.20;99.90;;;;;;4916503;29;20056;-76
2022/04/03 23:40:29;;;;;;;8.27;5.38;;;2.20;99.90;;;;;;4916315;29;20039;-76
2022/04/03 23:42:54;;;;;;;7.40;5.78;;;2.10;99.90;;;;;;4916437;29;20028;-75
2022/04/03 23:45:20;;;;;;;9.27;5.93;;;2.10;99.90;;;;;;4918940;29;20581;-76
2022/04/03 23:47:46;;;;;;;9.88;6.60;;;2.10;99.90;;;;;;4924078;29;20047;-76
2022/04/03 23:50:12;;;;;;;8.60;6.03;;;2.20;99.90;;;;;;4907680;29;20613;-76
2022/04/03 23:52:38;;;;;;;6.93;5.72;;;2.20;99.90;;;;;;4924657;29;20494;-76
2022/04/03 23:55:04;;;;;;;9.35;6.00;;;2.30;99.90;;;;;;4919660;29;20028;-75